Albuquerque, NM (87111)

11:49 AM MST on February 13, 2016 (GMT -0700)
Oso Redondo Neighborhood | | Change Station
CLOSE
Current Station
Personal Weather Station
Location: Albuquerque, NM
Elevation: 5690 ft
Nearby Weather Stations

Elev 5690 ft 35.14 °N, 106.52 °W | Updated 3 minutes ago

Clear
Clear
62.7 °F
Feels Like 62.7 °F
N
5.0
Wind Variable Wind from South
Gusts 5.0 mph

Today
High -- | Low -- °F
--% Chance of Precip.
Yesterday
High -- | Low -- °F
Precip. -- in
Pressure 30.19 in
Visibility 10.0 miles
Clouds Few 15000 ft
Dew Point 23 °F
Humidity 22%
Rainfall 0.00 in
Snow Depth Not available.
6:54 AM 5:46 PM
Waxing Crescent, 33% visible
METAR KABQ 131752Z 24003KT 10SM FEW150 12/M06 A3028 RMK AO2 SLP221 T01171061 10117 21006 58012
Pressure 30.19 in
Visibility 10.0 miles
Clouds Few 15000 ft
Dew Point 23 °F
Humidity 22%
Rainfall 0.00 in
Snow Depth Not available.
6:54 AM 5:46 PM
Waxing Crescent, 33% visible
METAR KABQ 131752Z 24003KT 10SM FEW150 12/M06 A3028 RMK AO2 SLP221 T01171061 10117 21006 58012

10-Day Weather Forecast

Almanac

Astronomy

Feb. 13, 2016 Rise Set
Actual Time
Civil Twilight
Nautical Twilight
Astronomical Twilight
Moon
Length of Visible Light
Length of Day
Tomorrow will be .
, % of the Moon is Illuminated

Today's Extremes

State Highs State Lows

Community

WunderPhotos

Upload Photos

1,892,633 photos uploaded!

WunderBlog® & News

Nearby

Air Quality

  Air Quality AQ Index Pollutant
Not available.

Snow Depth

Station Depth Elevation

Earthquake Activity

City Distance Mag. Time & Date
Minimum magnitude displayed is 2.5.

Coastal Water Temperatures

Place Temperature

Stations

Nearby Weather Stations

Station Location Temp. Windchill Dew Point Humidity Wind Precip. Elev Updated Type
                   

Watches & Warnings

There are currently no watches in effect.